sensor_id;sensor_type;location;lat;lon;timestamp;P1;durP1;ratioP1;P2;durP2;ratioP2
38240;SDS011;24037;49.536;8.500;2023-08-06T00:02:08;4.15;;;1.80;;
38240;SDS011;24037;49.536;8.500;2023-08-06T00:04:34;4.50;;;2.30;;
38240;SDS011;24037;49.536;8.500;2023-08-06T00:07:01;5.15;;;2.50;;
38240;SDS011;24037;49.536;8.500;2023-08-06T00:09:27;2.90;;;2.08;;
38240;SDS011;24037;49.536;8.500;2023-08-06T00:11:53;3.20;;;1.85;;
38240;SDS011;24037;49.536;8.500;2023-08-06T00:14:19;3.78;;;1.83;;
38240;SDS011;24037;49.536;8.500;2023-08-06T00:16:45;3.35;;;2.40;;
38240;SDS011;24037;49.536;8.500;2023-08-06T00:19:11;3.38;;;2.22;;
38240;SDS011;24037;49.536;8.500;2023-08-06T00:21:38;3.53;;;2.00;;
38240;SDS011;24037;49.536;8.500;2023-08-06T00:24:04;4.40;;;2.53;;
38240;SDS011;24037;49.536;8.500;2023-08-06T00:26:30;3.78;;;2.20;;
38240;SDS011;24037;49.536;8.500;2023-08-06T00:28:56;4.63;;;1.48;;
38240;SDS011;24037;49.536;8.500;2023-08-06T00:31:22;7.93;;;2.15;;
38240;SDS011;24037;49.536;8.500;2023-08-06T00:33:48;3.25;;;2.13;;
38240;SDS011;24037;49.536;8.500;2023-08-06T00:36:15;3.88;;;2.15;;
38240;SDS011;24037;49.536;8.500;2023-08-06T00:38:41;5.35;;;2.50;;
38240;SDS011;24037;49.536;8.500;2023-08-06T00:41:08;2.97;;;1.92;;
38240;SDS011;24037;49.536;8.500;2023-08-06T00:43:34;3.67;;;1.92;;
38240;SDS011;24037;49.536;8.500;2023-08-06T00:46:00;2.70;;;1.27;;
38240;SDS011;24037;49.536;8.500;2023-08-06T00:48:27;7.63;;;1.80;;
38240;SDS011;24037;49.536;8.500;2023-08-06T00:50:54;2.58;;;1.48;;
38240;SDS011;24037;49.536;8.500;2023-08-06T00:53:21;5.13;;;2.10;;
38240;SDS011;24037;49.536;8.500;2023-08-06T00:55:47;3.90;;;1.30;;
38240;SDS011;24037;49.536;8.500;2023-08-06T00:58:14;2.92;;;1.35;;
38240;SDS011;24037;49.536;8.500;2023-08-06T01:00:41;2.42;;;1.17;;
38240;SDS011;24037;49.536;8.500;2023-08-06T01:03:08;2.75;;;2.00;;
38240;SDS011;24037;49.536;8.500;2023-08-06T01:05:34;2.35;;;1.35;;
38240;SDS011;24037;49.536;8.500;2023-08-06T01:08:12;2.70;;;1.00;;
38240;SDS011;24037;49.536;8.500;2023-08-06T01:13:34;2.13;;;0.90;;
38240;SDS011;24037;49.536;8.500;2023-08-06T01:16:08;6.70;;;1.90;;
38240;SDS011;24037;49.536;8.500;2023-08-06T01:18:35;2.17;;;0.90;;
38240;SDS011;24037;49.536;8.500;2023-08-06T01:21:04;3.30;;;1.55;;
38240;SDS011;24037;49.536;8.500;2023-08-06T01:23:30;2.25;;;1.00;;
38240;SDS011;24037;49.536;8.500;2023-08-06T01:29:09;5.78;;;1.58;;
38240;SDS011;24037;49.536;8.500;2023-08-06T01:32:02;3.78;;;1.77;;
38240;SDS011;24037;49.536;8.500;2023-08-06T01:34:31;3.25;;;1.73;;
38240;SDS011;24037;49.536;8.500;2023-08-06T01:36:59;2.38;;;1.30;;
38240;SDS011;24037;49.536;8.500;2023-08-06T01:39:26;4.28;;;1.52;;
38240;SDS011;24037;49.536;8.500;2023-08-06T01:41:52;3.42;;;1.60;;
38240;SDS011;24037;49.536;8.500;2023-08-06T01:44:18;5.45;;;2.08;;
38240;SDS011;24037;49.536;8.500;2023-08-06T01:46:45;2.63;;;1.58;;
38240;SDS011;24037;49.536;8.500;2023-08-06T01:49:11;3.17;;;2.05;;
38240;SDS011;24037;49.536;8.500;2023-08-06T01:51:37;2.72;;;1.42;;
38240;SDS011;24037;49.536;8.500;2023-08-06T01:54:05;3.45;;;1.15;;
38240;SDS011;24037;49.536;8.500;2023-08-06T01:56:31;3.10;;;1.10;;
38240;SDS011;24037;49.536;8.500;2023-08-06T01:58:57;2.25;;;1.05;;
38240;SDS011;24037;49.536;8.500;2023-08-06T02:01:24;3.75;;;1.58;;
38240;SDS011;24037;49.536;8.500;2023-08-06T02:03:50;1.70;;;0.95;;
38240;SDS011;24037;49.536;8.500;2023-08-06T02:06:16;3.30;;;1.80;;
38240;SDS011;24037;49.536;8.500;2023-08-06T02:08:42;2.58;;;1.60;;
38240;SDS011;24037;49.536;8.500;2023-08-06T02:11:08;2.60;;;1.20;;
38240;SDS011;24037;49.536;8.500;2023-08-06T02:13:34;1.98;;;0.73;;
38240;SDS011;24037;49.536;8.500;2023-08-06T02:16:00;4.40;;;1.10;;
38240;SDS011;24037;49.536;8.500;2023-08-06T02:18:27;1.48;;;0.70;;
38240;SDS011;24037;49.536;8.500;2023-08-06T02:20:56;2.95;;;1.52;;
38240;SDS011;24037;49.536;8.500;2023-08-06T02:26:02;2.38;;;1.40;;
38240;SDS011;24037;49.536;8.500;2023-08-06T02:28:30;2.13;;;0.80;;
38240;SDS011;24037;49.536;8.500;2023-08-06T02:30:56;2.22;;;1.17;;
38240;SDS011;24037;49.536;8.500;2023-08-06T02:33:23;4.22;;;1.00;;
38240;SDS011;24037;49.536;8.500;2023-08-06T02:35:50;1.88;;;0.95;;
38240;SDS011;24037;49.536;8.500;2023-08-06T02:38:16;2.08;;;1.20;;
38240;SDS011;24037;49.536;8.500;2023-08-06T02:40:43;2.35;;;1.08;;
38240;SDS011;24037;49.536;8.500;2023-08-06T02:43:12;2.22;;;1.02;;
38240;SDS011;24037;49.536;8.500;2023-08-06T02:45:39;2.15;;;0.80;;
38240;SDS011;24037;49.536;8.500;2023-08-06T02:48:05;4.35;;;0.88;;
38240;SDS011;24037;49.536;8.500;2023-08-06T02:50:37;3.55;;;1.00;;
38240;SDS011;24037;49.536;8.500;2023-08-06T02:53:07;1.80;;;0.75;;
38240;SDS011;24037;49.536;8.500;2023-08-06T02:55:34;1.50;;;0.60;;
38240;SDS011;24037;49.536;8.500;2023-08-06T02:58:04;1.88;;;0.70;;
38240;SDS011;24037;49.536;8.500;2023-08-06T03:00:34;1.25;;;0.65;;
38240;SDS011;24037;49.536;8.500;2023-08-06T03:03:02;1.63;;;0.85;;
38240;SDS011;24037;49.536;8.500;2023-08-06T03:05:39;1.58;;;0.80;;
38240;SDS011;24037;49.536;8.500;2023-08-06T03:08:05;1.42;;;0.80;;
38240;SDS011;24037;49.536;8.500;2023-08-06T03:10:34;1.20;;;0.65;;
38240;SDS011;24037;49.536;8.500;2023-08-06T03:13:03;1.88;;;1.17;;
38240;SDS011;24037;49.536;8.500;2023-08-06T03:15:29;3.28;;;0.90;;
38240;SDS011;24037;49.536;8.500;2023-08-06T03:17:56;1.17;;;0.60;;
38240;SDS011;24037;49.536;8.500;2023-08-06T03:20:24;2.28;;;0.75;;
38240;SDS011;24037;49.536;8.500;2023-08-06T03:22:51;1.85;;;0.88;;
38240;SDS011;24037;49.536;8.500;2023-08-06T03:25:17;2.35;;;0.90;;
38240;SDS011;24037;49.536;8.500;2023-08-06T03:27:47;2.08;;;1.02;;
38240;SDS011;24037;49.536;8.500;2023-08-06T03:30:15;3.00;;;1.10;;
38240;SDS011;24037;49.536;8.500;2023-08-06T03:32:41;1.40;;;0.68;;
38240;SDS011;24037;49.536;8.500;2023-08-06T03:35:07;3.58;;;1.50;;
38240;SDS011;24037;49.536;8.500;2023-08-06T03:37:34;3.22;;;1.08;;
38240;SDS011;24037;49.536;8.500;2023-08-06T03:40:00;5.30;;;3.10;;
38240;SDS011;24037;49.536;8.500;2023-08-06T03:42:26;2.47;;;1.05;;
38240;SDS011;24037;49.536;8.500;2023-08-06T03:44:53;2.08;;;1.15;;
38240;SDS011;24037;49.536;8.500;2023-08-06T03:47:19;3.28;;;0.73;;
38240;SDS011;24037;49.536;8.500;2023-08-06T03:49:49;2.67;;;1.10;;
38240;SDS011;24037;49.536;8.500;2023-08-06T03:52:16;4.15;;;0.90;;
38240;SDS011;24037;49.536;8.500;2023-08-06T03:54:42;1.95;;;0.65;;
38240;SDS011;24037;49.536;8.500;2023-08-06T03:57:08;1.65;;;0.80;;
38240;SDS011;24037;49.536;8.500;2023-08-06T03:59:36;3.15;;;0.77;;
38240;SDS011;24037;49.536;8.500;2023-08-06T04:02:02;2.40;;;1.10;;
38240;SDS011;24037;49.536;8.500;2023-08-06T04:04:28;4.07;;;0.80;;
38240;SDS011;24037;49.536;8.500;2023-08-06T04:06:54;3.85;;;0.90;;
38240;SDS011;24037;49.536;8.500;2023-08-06T04:09:22;1.98;;;0.85;;
38240;SDS011;24037;49.536;8.500;2023-08-06T04:11:48;5.50;;;1.10;;
38240;SDS011;24037;49.536;8.500;2023-08-06T04:14:14;2.25;;;0.80;;
38240;SDS011;24037;49.536;8.500;2023-08-06T04:16:40;1.85;;;0.73;;
38240;SDS011;24037;49.536;8.500;2023-08-06T04:19:07;2.63;;;1.25;;
38240;SDS011;24037;49.536;8.500;2023-08-06T04:21:33;2.42;;;1.08;;
38240;SDS011;24037;49.536;8.500;2023-08-06T04:23:59;6.47;;;1.23;;
38240;SDS011;24037;49.536;8.500;2023-08-06T04:26:25;2.38;;;0.63;;
38240;SDS011;24037;49.536;8.500;2023-08-06T04:28:52;1.88;;;0.50;;
38240;SDS011;24037;49.536;8.500;2023-08-06T04:31:19;5.30;;;0.93;;
38240;SDS011;24037;49.536;8.500;2023-08-06T04:33:45;5.47;;;1.40;;
38240;SDS011;24037;49.536;8.500;2023-08-06T04:36:14;4.03;;;0.82;;
38240;SDS011;24037;49.536;8.500;2023-08-06T04:38:40;1.80;;;0.73;;
38240;SDS011;24037;49.536;8.500;2023-08-06T04:41:10;3.97;;;0.90;;
38240;SDS011;24037;49.536;8.500;2023-08-06T04:43:37;2.08;;;1.35;;
38240;SDS011;24037;49.536;8.500;2023-08-06T04:46:03;4.07;;;1.95;;
38240;SDS011;24037;49.536;8.500;2023-08-06T04:48:29;4.85;;;1.33;;
38240;SDS011;24037;49.536;8.500;2023-08-06T04:50:55;3.95;;;1.10;;
38240;SDS011;24037;49.536;8.500;2023-08-06T04:53:21;2.67;;;0.75;;
38240;SDS011;24037;49.536;8.500;2023-08-06T04:55:47;4.88;;;1.65;;
38240;SDS011;24037;49.536;8.500;2023-08-06T04:58:14;2.95;;;0.70;;
38240;SDS011;24037;49.536;8.500;2023-08-06T05:00:40;4.88;;;1.05;;
38240;SDS011;24037;49.536;8.500;2023-08-06T05:03:06;0.77;;;0.40;;
38240;SDS011;24037;49.536;8.500;2023-08-06T05:05:32;1.65;;;0.68;;
38240;SDS011;24037;49.536;8.500;2023-08-06T05:07:59;1.33;;;0.47;;
38240;SDS011;24037;49.536;8.500;2023-08-06T05:10:25;3.45;;;1.13;;
38240;SDS011;24037;49.536;8.500;2023-08-06T05:12:51;2.90;;;1.50;;
38240;SDS011;24037;49.536;8.500;2023-08-06T05:15:18;2.05;;;0.40;;
38240;SDS011;24037;49.536;8.500;2023-08-06T05:17:44;3.30;;;0.40;;
38240;SDS011;24037;49.536;8.500;2023-08-06T05:20:11;2.33;;;0.82;;
38240;SDS011;24037;49.536;8.500;2023-08-06T05:22:37;1.38;;;0.80;;
38240;SDS011;24037;49.536;8.500;2023-08-06T05:25:03;1.67;;;0.70;;
38240;SDS011;24037;49.536;8.500;2023-08-06T05:27:30;2.72;;;0.40;;
38240;SDS011;24037;49.536;8.500;2023-08-06T05:29:56;2.28;;;0.57;;
38240;SDS011;24037;49.536;8.500;2023-08-06T05:32:22;1.67;;;0.47;;
38240;SDS011;24037;49.536;8.500;2023-08-06T05:34:48;2.28;;;0.63;;
38240;SDS011;24037;49.536;8.500;2023-08-06T05:37:15;1.65;;;0.30;;
38240;SDS011;24037;49.536;8.500;2023-08-06T05:39:41;2.97;;;0.60;;
38240;SDS011;24037;49.536;8.500;2023-08-06T05:42:07;1.08;;;0.57;;
38240;SDS011;24037;49.536;8.500;2023-08-06T05:44:33;1.23;;;0.43;;
38240;SDS011;24037;49.536;8.500;2023-08-06T05:46:59;4.72;;;0.52;;
38240;SDS011;24037;49.536;8.500;2023-08-06T05:49:25;3.55;;;1.23;;
38240;SDS011;24037;49.536;8.500;2023-08-06T05:51:51;2.25;;;0.50;;
38240;SDS011;24037;49.536;8.500;2023-08-06T05:54:20;3.80;;;0.75;;
38240;SDS011;24037;49.536;8.500;2023-08-06T05:56:46;1.40;;;0.40;;
38240;SDS011;24037;49.536;8.500;2023-08-06T05:59:12;2.08;;;0.40;;
38240;SDS011;24037;49.536;8.500;2023-08-06T06:01:38;2.25;;;0.65;;
38240;SDS011;24037;49.536;8.500;2023-08-06T06:04:05;2.05;;;0.55;;
38240;SDS011;24037;49.536;8.500;2023-08-06T06:06:31;3.55;;;0.70;;
38240;SDS011;24037;49.536;8.500;2023-08-06T06:08:57;2.35;;;0.60;;
38240;SDS011;24037;49.536;8.500;2023-08-06T06:11:23;3.10;;;0.50;;
38240;SDS011;24037;49.536;8.500;2023-08-06T06:13:50;1.42;;;0.38;;
38240;SDS011;24037;49.536;8.500;2023-08-06T06:16:16;1.58;;;0.50;;
38240;SDS011;24037;49.536;8.500;2023-08-06T06:18:43;3.90;;;1.02;;
38240;SDS011;24037;49.536;8.500;2023-08-06T06:21:09;2.67;;;0.50;;
38240;SDS011;24037;49.536;8.500;2023-08-06T06:23:36;3.80;;;0.70;;
38240;SDS011;24037;49.536;8.500;2023-08-06T06:26:02;1.50;;;0.40;;
38240;SDS011;24037;49.536;8.500;2023-08-06T06:28:28;1.67;;;0.45;;
38240;SDS011;24037;49.536;8.500;2023-08-06T06:30:59;2.50;;;0.50;;
38240;SDS011;24037;49.536;8.500;2023-08-06T06:33:26;3.03;;;0.70;;
38240;SDS011;24037;49.536;8.500;2023-08-06T06:35:52;7.10;;;2.42;;
38240;SDS011;24037;49.536;8.500;2023-08-06T06:38:18;2.17;;;0.50;;
38240;SDS011;24037;49.536;8.500;2023-08-06T06:40:53;0.90;;;0.40;;
38240;SDS011;24037;49.536;8.500;2023-08-06T06:43:20;2.88;;;0.47;;
38240;SDS011;24037;49.536;8.500;2023-08-06T06:45:46;1.10;;;0.30;;
38240;SDS011;24037;49.536;8.500;2023-08-06T06:48:12;1.23;;;0.52;;
38240;SDS011;24037;49.536;8.500;2023-08-06T06:50:41;2.25;;;0.63;;
38240;SDS011;24037;49.536;8.500;2023-08-06T06:53:07;1.33;;;0.40;;
38240;SDS011;24037;49.536;8.500;2023-08-06T06:55:33;2.60;;;0.43;;
38240;SDS011;24037;49.536;8.500;2023-08-06T06:58:00;1.38;;;0.20;;
38240;SDS011;24037;49.536;8.500;2023-08-06T07:00:26;1.00;;;0.30;;
38240;SDS011;24037;49.536;8.500;2023-08-06T07:02:53;1.25;;;0.50;;
38240;SDS011;24037;49.536;8.500;2023-08-06T07:05:19;0.93;;;0.52;;
38240;SDS011;24037;49.536;8.500;2023-08-06T07:07:45;4.05;;;1.27;;
38240;SDS011;24037;49.536;8.500;2023-08-06T07:10:11;1.58;;;0.47;;
38240;SDS011;24037;49.536;8.500;2023-08-06T07:12:40;1.33;;;0.35;;
38240;SDS011;24037;49.536;8.500;2023-08-06T07:15:06;2.72;;;0.50;;
38240;SDS011;24037;49.536;8.500;2023-08-06T07:17:32;1.40;;;0.60;;
38240;SDS011;24037;49.536;8.500;2023-08-06T07:19:58;3.25;;;0.30;;
38240;SDS011;24037;49.536;8.500;2023-08-06T07:22:25;0.80;;;0.32;;
38240;SDS011;24037;49.536;8.500;2023-08-06T07:24:51;1.80;;;0.50;;
38240;SDS011;24037;49.536;8.500;2023-08-06T07:27:17;1.70;;;0.40;;
38240;SDS011;24037;49.536;8.500;2023-08-06T07:29:43;1.90;;;0.50;;
38240;SDS011;24037;49.536;8.500;2023-08-06T07:32:09;0.85;;;0.30;;
38240;SDS011;24037;49.536;8.500;2023-08-06T07:34:35;1.17;;;0.32;;
38240;SDS011;24037;49.536;8.500;2023-08-06T07:37:02;0.50;;;0.20;;
38240;SDS011;24037;49.536;8.500;2023-08-06T07:39:28;1.95;;;0.30;;
38240;SDS011;24037;49.536;8.500;2023-08-06T07:41:54;3.63;;;0.45;;
38240;SDS011;24037;49.536;8.500;2023-08-06T07:44:20;1.40;;;0.17;;
38240;SDS011;24037;49.536;8.500;2023-08-06T07:46:47;0.90;;;0.20;;
38240;SDS011;24037;49.536;8.500;2023-08-06T07:49:13;0.60;;;0.20;;
38240;SDS011;24037;49.536;8.500;2023-08-06T07:51:39;0.98;;;0.20;;
38240;SDS011;24037;49.536;8.500;2023-08-06T07:54:05;2.33;;;0.30;;
38240;SDS011;24037;49.536;8.500;2023-08-06T07:56:32;1.80;;;0.25;;
38240;SDS011;24037;49.536;8.500;2023-08-06T07:58:58;1.35;;;0.20;;
38240;SDS011;24037;49.536;8.500;2023-08-06T08:01:24;1.85;;;0.40;;
38240;SDS011;24037;49.536;8.500;2023-08-06T08:03:50;1.15;;;0.20;;
38240;SDS011;24037;49.536;8.500;2023-08-06T08:06:17;3.90;;;0.90;;
38240;SDS011;24037;49.536;8.500;2023-08-06T08:08:43;0.10;;;0.10;;
38240;SDS011;24037;49.536;8.500;2023-08-06T08:11:09;0.47;;;0.10;;
38240;SDS011;24037;49.536;8.500;2023-08-06T08:13:35;0.73;;;0.28;;
38240;SDS011;24037;49.536;8.500;2023-08-06T08:16:01;1.92;;;0.35;;
38240;SDS011;24037;49.536;8.500;2023-08-06T08:18:28;0.90;;;0.20;;
38240;SDS011;24037;49.536;8.500;2023-08-06T08:20:55;0.28;;;0.20;;
38240;SDS011;24037;49.536;8.500;2023-08-06T08:23:21;0.68;;;0.20;;
38240;SDS011;24037;49.536;8.500;2023-08-06T08:25:47;0.93;;;0.30;;
38240;SDS011;24037;49.536;8.500;2023-08-06T08:28:13;0.75;;;0.13;;
38240;SDS011;24037;49.536;8.500;2023-08-06T08:30:42;0.50;;;0.17;;
38240;SDS011;24037;49.536;8.500;2023-08-06T08:33:09;0.63;;;0.22;;
38240;SDS011;24037;49.536;8.500;2023-08-06T08:35:35;0.25;;;0.22;;
38240;SDS011;24037;49.536;8.500;2023-08-06T08:38:02;2.97;;;0.68;;
38240;SDS011;24037;49.536;8.500;2023-08-06T08:40:32;0.50;;;0.22;;
38240;SDS011;24037;49.536;8.500;2023-08-06T08:43:03;0.45;;;0.10;;
38240;SDS011;24037;49.536;8.500;2023-08-06T08:45:30;0.10;;;0.10;;
38240;SDS011;24037;49.536;8.500;2023-08-06T08:47:59;1.27;;;0.20;;
38240;SDS011;24037;49.536;8.500;2023-08-06T08:50:26;1.08;;;0.10;;
38240;SDS011;24037;49.536;8.500;2023-08-06T08:52:52;0.20;;;0.20;;
38240;SDS011;24037;49.536;8.500;2023-08-06T08:55:18;0.50;;;0.10;;
38240;SDS011;24037;49.536;8.500;2023-08-06T08:57:47;0.10;;;0.10;;
38240;SDS011;24037;49.536;8.500;2023-08-06T09:00:13;0.22;;;0.10;;
38240;SDS011;24037;49.536;8.500;2023-08-06T09:02:40;0.15;;;0.10;;
38240;SDS011;24037;49.536;8.500;2023-08-06T09:05:08;0.30;;;0.10;;
38240;SDS011;24037;49.536;8.500;2023-08-06T09:07:38;0.20;;;0.10;;
38240;SDS011;24037;49.536;8.500;2023-08-06T09:10:12;0.10;;;0.10;;
38240;SDS011;24037;49.536;8.500;2023-08-06T09:12:43;0.52;;;0.20;;
38240;SDS011;24037;49.536;8.500;2023-08-06T09:15:10;0.75;;;0.15;;
38240;SDS011;24037;49.536;8.500;2023-08-06T09:17:37;0.45;;;0.20;;
38240;SDS011;24037;49.536;8.500;2023-08-06T09:20:12;0.50;;;0.10;;
38240;SDS011;24037;49.536;8.500;2023-08-06T09:22:42;0.65;;;0.15;;
38240;SDS011;24037;49.536;8.500;2023-08-06T09:25:10;0.30;;;0.10;;
38240;SDS011;24037;49.536;8.500;2023-08-06T09:27:37;0.77;;;0.20;;
38240;SDS011;24037;49.536;8.500;2023-08-06T09:30:04;0.00;;;0.00;;
38240;SDS011;24037;49.536;8.500;2023-08-06T09:32:45;0.55;;;0.10;;
38240;SDS011;24037;49.536;8.500;2023-08-06T09:35:18;0.20;;;0.20;;
38240;SDS011;24037;49.536;8.500;2023-08-06T09:37:45;0.88;;;0.40;;
38240;SDS011;24037;49.536;8.500;2023-08-06T09:42:54;0.30;;;0.22;;
38240;SDS011;24037;49.536;8.500;2023-08-06T09:45:20;0.43;;;0.10;;
38240;SDS011;24037;49.536;8.500;2023-08-06T09:47:55;0.22;;;0.10;;
38240;SDS011;24037;49.536;8.500;2023-08-06T09:50:21;0.25;;;0.10;;
38240;SDS011;24037;49.536;8.500;2023-08-06T09:52:48;0.28;;;0.10;;
38240;SDS011;24037;49.536;8.500;2023-08-06T09:55:17;0.40;;;0.10;;
38240;SDS011;24037;49.536;8.500;2023-08-06T09:57:44;0.20;;;0.00;;
38240;SDS011;24037;49.536;8.500;2023-08-06T10:00:10;0.95;;;0.10;;
38240;SDS011;24037;49.536;8.500;2023-08-06T10:02:40;0.20;;;0.10;;
38240;SDS011;24037;49.536;8.500;2023-08-06T10:05:08;0.57;;;0.40;;
38240;SDS011;24037;49.536;8.500;2023-08-06T10:07:35;0.13;;;0.10;;
38240;SDS011;24037;49.536;8.500;2023-08-06T10:10:02;0.93;;;0.28;;
38240;SDS011;24037;49.536;8.500;2023-08-06T10:12:29;0.60;;;0.20;;
38240;SDS011;24037;49.536;8.500;2023-08-06T10:15:01;0.10;;;0.10;;
38240;SDS011;24037;49.536;8.500;2023-08-06T10:17:30;0.13;;;0.13;;
38240;SDS011;24037;49.536;8.500;2023-08-06T10:19:58;0.10;;;0.10;;
38240;SDS011;24037;49.536;8.500;2023-08-06T10:22:25;0.17;;;0.10;;
38240;SDS011;24037;49.536;8.500;2023-08-06T10:24:53;0.10;;;0.00;;
38240;SDS011;24037;49.536;8.500;2023-08-06T10:27:22;3.65;;;0.65;;
38240;SDS011;24037;49.536;8.500;2023-08-06T10:29:54;1.08;;;0.20;;
38240;SDS011;24037;49.536;8.500;2023-08-06T10:32:20;0.28;;;0.10;;
38240;SDS011;24037;49.536;8.500;2023-08-06T10:34:54;0.75;;;0.10;;
38240;SDS011;24037;49.536;8.500;2023-08-06T10:37:24;0.30;;;0.10;;
38240;SDS011;24037;49.536;8.500;2023-08-06T10:40:03;1.00;;;0.10;;
38240;SDS011;24037;49.536;8.500;2023-08-06T10:42:32;0.73;;;0.10;;
38240;SDS011;24037;49.536;8.500;2023-08-06T10:47:44;2.17;;;0.20;;
38240;SDS011;24037;49.536;8.500;2023-08-06T10:50:12;1.25;;;0.32;;
38240;SDS011;24037;49.536;8.500;2023-08-06T10:52:39;2.28;;;0.35;;
38240;SDS011;24037;49.536;8.500;2023-08-06T10:55:06;1.65;;;0.17;;
38240;SDS011;24037;49.536;8.500;2023-08-06T10:57:32;1.02;;;0.30;;
38240;SDS011;24037;49.536;8.500;2023-08-06T10:59:58;1.65;;;0.60;;
38240;SDS011;24037;49.536;8.500;2023-08-06T11:02:25;1.50;;;0.50;;
38240;SDS011;24037;49.536;8.500;2023-08-06T11:04:51;0.80;;;0.40;;
38240;SDS011;24037;49.536;8.500;2023-08-06T11:07:17;1.48;;;0.70;;
38240;SDS011;24037;49.536;8.500;2023-08-06T11:09:43;1.30;;;0.10;;
38240;SDS011;24037;49.536;8.500;2023-08-06T11:12:10;0.60;;;0.20;;
38240;SDS011;24037;49.536;8.500;2023-08-06T11:14:36;0.93;;;0.22;;
38240;SDS011;24037;49.536;8.500;2023-08-06T11:17:04;0.95;;;0.40;;
38240;SDS011;24037;49.536;8.500;2023-08-06T11:19:31;0.73;;;0.20;;
38240;SDS011;24037;49.536;8.500;2023-08-06T11:21:57;0.57;;;0.22;;
38240;SDS011;24037;49.536;8.500;2023-08-06T11:24:25;0.93;;;0.45;;
38240;SDS011;24037;49.536;8.500;2023-08-06T11:26:51;1.02;;;0.30;;
38240;SDS011;24037;49.536;8.500;2023-08-06T11:29:17;1.27;;;0.20;;
38240;SDS011;24037;49.536;8.500;2023-08-06T11:31:44;2.00;;;0.85;;
38240;SDS011;24037;49.536;8.500;2023-08-06T11:34:10;1.10;;;0.40;;
38240;SDS011;24037;49.536;8.500;2023-08-06T11:36:39;1.30;;;0.28;;
38240;SDS011;24037;49.536;8.500;2023-08-06T11:39:06;1.83;;;0.22;;
38240;SDS011;24037;49.536;8.500;2023-08-06T11:41:32;0.88;;;0.30;;
38240;SDS011;24037;49.536;8.500;2023-08-06T11:43:59;0.88;;;0.38;;
38240;SDS011;24037;49.536;8.500;2023-08-06T11:46:25;1.75;;;0.20;;
38240;SDS011;24037;49.536;8.500;2023-08-06T11:48:55;1.13;;;0.20;;
38240;SDS011;24037;49.536;8.500;2023-08-06T11:51:23;2.03;;;0.30;;
38240;SDS011;24037;49.536;8.500;2023-08-06T11:53:55;0.98;;;0.40;;
38240;SDS011;24037;49.536;8.500;2023-08-06T11:56:22;2.75;;;0.73;;
38240;SDS011;24037;49.536;8.500;2023-08-06T11:58:49;0.98;;;0.57;;
38240;SDS011;24037;49.536;8.500;2023-08-06T12:01:15;1.27;;;0.40;;
38240;SDS011;24037;49.536;8.500;2023-08-06T12:03:41;3.35;;;0.88;;
38240;SDS011;24037;49.536;8.500;2023-08-06T12:06:08;1.23;;;0.43;;
38240;SDS011;24037;49.536;8.500;2023-08-06T12:08:34;1.50;;;0.60;;
38240;SDS011;24037;49.536;8.500;2023-08-06T12:11:00;1.13;;;0.40;;
38240;SDS011;24037;49.536;8.500;2023-08-06T12:13:26;3.53;;;0.73;;
38240;SDS011;24037;49.536;8.500;2023-08-06T12:15:53;0.77;;;0.25;;
38240;SDS011;24037;49.536;8.500;2023-08-06T12:18:20;4.15;;;0.98;;
38240;SDS011;24037;49.536;8.500;2023-08-06T12:20:46;2.78;;;0.40;;
38240;SDS011;24037;49.536;8.500;2023-08-06T12:23:12;1.95;;;0.40;;
38240;SDS011;24037;49.536;8.500;2023-08-06T12:25:41;1.35;;;0.68;;
38240;SDS011;24037;49.536;8.500;2023-08-06T12:28:08;3.38;;;0.68;;
38240;SDS011;24037;49.536;8.500;2023-08-06T12:30:35;1.63;;;0.70;;
38240;SDS011;24037;49.536;8.500;2023-08-06T12:33:01;1.10;;;0.35;;
38240;SDS011;24037;49.536;8.500;2023-08-06T12:35:27;1.80;;;0.40;;
38240;SDS011;24037;49.536;8.500;2023-08-06T12:37:53;2.05;;;0.60;;
38240;SDS011;24037;49.536;8.500;2023-08-06T12:40:20;2.50;;;0.47;;
38240;SDS011;24037;49.536;8.500;2023-08-06T12:42:46;0.90;;;0.30;;
38240;SDS011;24037;49.536;8.500;2023-08-06T12:45:15;1.23;;;0.50;;
38240;SDS011;24037;49.536;8.500;2023-08-06T12:47:41;3.63;;;1.60;;
38240;SDS011;24037;49.536;8.500;2023-08-06T12:50:07;2.25;;;1.20;;
38240;SDS011;24037;49.536;8.500;2023-08-06T12:52:34;5.07;;;0.60;;
38240;SDS011;24037;49.536;8.500;2023-08-06T12:55:00;2.45;;;0.85;;
38240;SDS011;24037;49.536;8.500;2023-08-06T12:57:26;2.78;;;0.85;;
38240;SDS011;24037;49.536;8.500;2023-08-06T12:59:55;2.78;;;0.50;;
38240;SDS011;24037;49.536;8.500;2023-08-06T13:02:21;0.50;;;0.20;;
38240;SDS011;24037;49.536;8.500;2023-08-06T13:04:47;1.50;;;0.35;;
38240;SDS011;24037;49.536;8.500;2023-08-06T13:07:13;1.67;;;0.82;;
38240;SDS011;24037;49.536;8.500;2023-08-06T13:09:39;1.73;;;0.57;;
38240;SDS011;24037;49.536;8.500;2023-08-06T13:12:06;3.15;;;1.52;;
38240;SDS011;24037;49.536;8.500;2023-08-06T13:14:32;0.63;;;0.30;;
38240;SDS011;24037;49.536;8.500;2023-08-06T13:16:58;0.65;;;0.40;;
38240;SDS011;24037;49.536;8.500;2023-08-06T13:19:24;0.60;;;0.20;;
38240;SDS011;24037;49.536;8.500;2023-08-06T13:24:24;0.60;;;0.25;;
38240;SDS011;24037;49.536;8.500;2023-08-06T13:26:50;0.65;;;0.20;;
38240;SDS011;24037;49.536;8.500;2023-08-06T13:29:16;2.47;;;0.15;;
38240;SDS011;24037;49.536;8.500;2023-08-06T13:31:42;1.17;;;0.20;;
38240;SDS011;24037;49.536;8.500;2023-08-06T13:34:08;3.53;;;0.70;;
38240;SDS011;24037;49.536;8.500;2023-08-06T13:36:34;1.70;;;0.60;;
38240;SDS011;24037;49.536;8.500;2023-08-06T13:39:00;1.83;;;0.50;;
38240;SDS011;24037;49.536;8.500;2023-08-06T13:41:30;1.05;;;0.55;;
38240;SDS011;24037;49.536;8.500;2023-08-06T13:43:57;0.73;;;0.17;;
38240;SDS011;24037;49.536;8.500;2023-08-06T13:46:23;0.73;;;0.35;;
38240;SDS011;24037;49.536;8.500;2023-08-06T13:48:50;3.50;;;0.43;;
38240;SDS011;24037;49.536;8.500;2023-08-06T13:51:18;1.05;;;0.47;;
38240;SDS011;24037;49.536;8.500;2023-08-06T13:53:45;1.48;;;0.20;;
38240;SDS011;24037;49.536;8.500;2023-08-06T13:56:11;0.28;;;0.20;;
38240;SDS011;24037;49.536;8.500;2023-08-06T13:58:38;0.40;;;0.20;;
38240;SDS011;24037;49.536;8.500;2023-08-06T14:01:04;1.20;;;0.55;;
38240;SDS011;24037;49.536;8.500;2023-08-06T14:03:31;2.70;;;0.85;;
38240;SDS011;24037;49.536;8.500;2023-08-06T14:05:57;1.20;;;0.20;;
38240;SDS011;24037;49.536;8.500;2023-08-06T14:08:24;1.90;;;0.50;;
38240;SDS011;24037;49.536;8.500;2023-08-06T14:10:51;1.10;;;0.40;;
38240;SDS011;24037;49.536;8.500;2023-08-06T14:13:17;1.58;;;0.70;;
38240;SDS011;24037;49.536;8.500;2023-08-06T14:15:44;2.53;;;0.68;;
38240;SDS011;24037;49.536;8.500;2023-08-06T14:18:15;2.53;;;0.82;;
38240;SDS011;24037;49.536;8.500;2023-08-06T14:20:42;1.67;;;0.57;;
38240;SDS011;24037;49.536;8.500;2023-08-06T14:23:09;1.42;;;0.70;;
38240;SDS011;24037;49.536;8.500;2023-08-06T14:25:35;1.73;;;0.85;;
38240;SDS011;24037;49.536;8.500;2023-08-06T14:28:02;2.22;;;0.65;;
38240;SDS011;24037;49.536;8.500;2023-08-06T14:30:29;3.30;;;0.60;;
38240;SDS011;24037;49.536;8.500;2023-08-06T14:32:55;3.50;;;1.50;;
38240;SDS011;24037;49.536;8.500;2023-08-06T14:35:21;6.22;;;1.52;;
38240;SDS011;24037;49.536;8.500;2023-08-06T14:37:48;3.67;;;0.80;;
38240;SDS011;24037;49.536;8.500;2023-08-06T14:40:14;2.17;;;1.02;;
38240;SDS011;24037;49.536;8.500;2023-08-06T14:42:40;1.65;;;0.40;;
38240;SDS011;24037;49.536;8.500;2023-08-06T14:45:06;1.23;;;0.40;;
38240;SDS011;24037;49.536;8.500;2023-08-06T14:47:32;0.80;;;0.32;;
38240;SDS011;24037;49.536;8.500;2023-08-06T14:49:58;1.58;;;0.50;;
38240;SDS011;24037;49.536;8.500;2023-08-06T14:52:25;2.10;;;0.57;;
38240;SDS011;24037;49.536;8.500;2023-08-06T14:54:51;3.28;;;1.48;;
38240;SDS011;24037;49.536;8.500;2023-08-06T14:57:21;2.63;;;0.70;;
38240;SDS011;24037;49.536;8.500;2023-08-06T14:59:53;1.90;;;0.50;;
38240;SDS011;24037;49.536;8.500;2023-08-06T15:02:20;1.50;;;0.65;;
38240;SDS011;24037;49.536;8.500;2023-08-06T15:04:46;1.67;;;0.50;;